首页
METAR-TAF:

METAR-TAF

机场 :

明尼阿波利斯-圣保罗国际机场

明尼阿波利斯, 明尼蘇達州, 美国

纬度: 44-52-59N, 经度: 093-13-44W, 海拔: 256米

当前天气观测

该预报发布于21分钟前的05:53 UTC
风速8节,风向西
温度 5°C
湿度 65%
气压 1006 hPa
能見度: 16.1公里
天空无云

METAR: KMSP 230553Z 28008KT 10SM CLR 05/M01 A2971 RMK AO2 SLP065 T00501006 10072 20050 400780050 51009

时间: 01:14 (06:14 UTC)

预报

该预报发布于54分钟前的05:20 UTC
预报有效从23日的 06点(UTC)到 24日的 12点(UTC)
风速10节,风向西
能見度: 10公里
少量云层高于5000英尺
从 23日的 1200点(UTC)
风速4节,风向西
能見度: 10公里
少量云层高于20000英尺
从 23日的 1500点(UTC)
风速5节,风向西转西北
能見度: 10公里
散云层高于3000英尺
多云层高于12000英尺
从 23日的 2000点(UTC)
风速9节,风向西北
能見度: 10公里
阴天层高于2500英尺

TAF: KMSP 230520Z 2306/2412 28010KT P6SM FEW050 FM231200 27004KT P6SM FEW200 FM231500 30005KT P6SM SCT030 BKN120 FM232000 31009KT P6SM OVC025

超过4000个机场的气象观测和天气预报(METAR&TAF报告)。

可查询的气象台以黄色和红色小点在地图上表示。

将鼠标移到小点上方,可查看气象台名称。

然后点击查看天气观测和预报。

如需切换地图:点击带黑十字的绿色按钮放大地图;点击带横线的绿色按钮缩小地图;或者点击绿色箭头查看邻近地区的地图。


METAR-TAF: